sensor_id;sensor_type;location;lat;lon;timestamp;pressure;altitude;pressure_sealevel;temperature;humidity
4617;BME280;2321;42.704;23.384;2024-02-23T00:00:36;95191.88;;;6.90;nan
4617;BME280;2321;42.704;23.384;2024-02-23T00:03:03;95189.22;;;6.90;nan
4617;BME280;2321;42.704;23.384;2024-02-23T00:05:30;95191.41;;;6.86;nan
4617;BME280;2321;42.704;23.384;2024-02-23T00:07:58;95193.91;;;6.79;nan
4617;BME280;2321;42.704;23.384;2024-02-23T00:10:27;95203.19;;;6.75;nan
4617;BME280;2321;42.704;23.384;2024-02-23T00:12:54;95189.66;;;6.70;nan
4617;BME280;2321;42.704;23.384;2024-02-23T00:15:22;95179.94;;;6.62;nan
4617;BME280;2321;42.704;23.384;2024-02-23T00:17:50;95191.56;;;6.52;nan
4617;BME280;2321;42.704;23.384;2024-02-23T00:20:17;95190.56;;;6.45;nan
4617;BME280;2321;42.704;23.384;2024-02-23T00:22:44;95185.28;;;6.45;nan
4617;BME280;2321;42.704;23.384;2024-02-23T00:25:11;95186.75;;;6.56;nan
4617;BME280;2321;42.704;23.384;2024-02-23T00:27:39;95177.47;;;6.60;nan
4617;BME280;2321;42.704;23.384;2024-02-23T00:30:08;95184.88;;;6.65;nan
4617;BME280;2321;42.704;23.384;2024-02-23T00:32:35;95185.34;;;6.69;nan
4617;BME280;2321;42.704;23.384;2024-02-23T00:35:02;95166.31;;;6.73;nan
4617;BME280;2321;42.704;23.384;2024-02-23T00:37:29;95179.72;;;6.72;nan
4617;BME280;2321;42.704;23.384;2024-02-23T00:40:01;95171.28;;;6.77;nan
4617;BME280;2321;42.704;23.384;2024-02-23T00:42:29;95163.31;;;6.77;nan
4617;BME280;2321;42.704;23.384;2024-02-23T00:44:58;95162.16;;;6.79;nan
4617;BME280;2321;42.704;23.384;2024-02-23T00:47:26;95168.44;;;6.78;nan
4617;BME280;2321;42.704;23.384;2024-02-23T00:49:53;95165.97;;;6.77;nan
4617;BME280;2321;42.704;23.384;2024-02-23T00:52:20;95159.03;;;6.75;nan
4617;BME280;2321;42.704;23.384;2024-02-23T00:54:47;95160.72;;;6.68;nan
4617;BME280;2321;42.704;23.384;2024-02-23T00:57:15;95151.97;;;6.68;nan
4617;BME280;2321;42.704;23.384;2024-02-23T00:59:44;95163.38;;;6.68;nan
4617;BME280;2321;42.704;23.384;2024-02-23T01:02:13;95153.78;;;6.67;nan
4617;BME280;2321;42.704;23.384;2024-02-23T01:04:40;95121.81;;;6.45;nan
4617;BME280;2321;42.704;23.384;2024-02-23T01:07:07;95128.56;;;6.48;nan
4617;BME280;2321;42.704;23.384;2024-02-23T01:09:34;95134.06;;;6.46;nan
4617;BME280;2321;42.704;23.384;2024-02-23T01:12:01;95142.63;;;6.48;nan
4617;BME280;2321;42.704;23.384;2024-02-23T01:14:28;95143.13;;;6.52;nan
4617;BME280;2321;42.704;23.384;2024-02-23T01:16:55;95147.72;;;6.58;nan
4617;BME280;2321;42.704;23.384;2024-02-23T01:19:23;95160.75;;;6.60;nan
4617;BME280;2321;42.704;23.384;2024-02-23T01:21:50;95150.84;;;6.62;nan
4617;BME280;2321;42.704;23.384;2024-02-23T01:24:25;95136.94;;;6.60;nan
4617;BME280;2321;42.704;23.384;2024-02-23T01:26:53;95125.09;;;6.47;nan
4617;BME280;2321;42.704;23.384;2024-02-23T01:29:20;95140.13;;;6.55;nan
4617;BME280;2321;42.704;23.384;2024-02-23T01:31:47;95137.63;;;6.53;nan
4617;BME280;2321;42.704;23.384;2024-02-23T01:34:15;95130.03;;;6.59;nan
4617;BME280;2321;42.704;23.384;2024-02-23T01:36:43;95121.56;;;6.63;nan
4617;BME280;2321;42.704;23.384;2024-02-23T01:39:10;95120.56;;;6.64;nan
4617;BME280;2321;42.704;23.384;2024-02-23T01:41:38;95118.44;;;6.60;nan
4617;BME280;2321;42.704;23.384;2024-02-23T01:44:05;95123.38;;;6.63;nan
4617;BME280;2321;42.704;23.384;2024-02-23T01:46:32;95123.72;;;6.60;nan
4617;BME280;2321;42.704;23.384;2024-02-23T01:48:59;95126.56;;;6.58;nan
4617;BME280;2321;42.704;23.384;2024-02-23T01:51:26;95120.78;;;6.54;nan
4617;BME280;2321;42.704;23.384;2024-02-23T01:53:55;95114.84;;;6.52;nan
4617;BME280;2321;42.704;23.384;2024-02-23T01:56:22;95112.06;;;6.46;nan
4617;BME280;2321;42.704;23.384;2024-02-23T01:58:49;95109.13;;;6.40;nan
4617;BME280;2321;42.704;23.384;2024-02-23T02:01:16;95110.75;;;6.41;nan
4617;BME280;2321;42.704;23.384;2024-02-23T02:03:43;95108.59;;;6.45;nan
4617;BME280;2321;42.704;23.384;2024-02-23T02:06:11;95105.59;;;6.48;nan
4617;BME280;2321;42.704;23.384;2024-02-23T02:08:39;95108.88;;;6.50;nan
4617;BME280;2321;42.704;23.384;2024-02-23T02:11:08;95103.59;;;6.50;nan
4617;BME280;2321;42.704;23.384;2024-02-23T02:13:35;95106.09;;;6.52;nan
4617;BME280;2321;42.704;23.384;2024-02-23T02:16:02;95106.91;;;6.52;nan
4617;BME280;2321;42.704;23.384;2024-02-23T02:18:30;95104.44;;;6.51;nan
4617;BME280;2321;42.704;23.384;2024-02-23T02:20:57;95101.97;;;6.49;nan
4617;BME280;2321;42.704;23.384;2024-02-23T02:23:25;95093.22;;;6.49;nan
4617;BME280;2321;42.704;23.384;2024-02-23T02:25:53;95097.66;;;6.48;nan
4617;BME280;2321;42.704;23.384;2024-02-23T02:28:22;95102.19;;;6.39;nan
4617;BME280;2321;42.704;23.384;2024-02-23T02:30:49;95104.00;;;6.39;nan
4617;BME280;2321;42.704;23.384;2024-02-23T02:33:16;95106.97;;;6.36;nan
4617;BME280;2321;42.704;23.384;2024-02-23T02:35:43;95115.59;;;6.38;nan
4617;BME280;2321;42.704;23.384;2024-02-23T02:38:11;95093.97;;;6.26;nan
4617;BME280;2321;42.704;23.384;2024-02-23T02:40:38;95100.91;;;6.27;nan
4617;BME280;2321;42.704;23.384;2024-02-23T02:43:05;95091.81;;;6.29;nan
4617;BME280;2321;42.704;23.384;2024-02-23T02:45:35;95085.56;;;6.22;nan
4617;BME280;2321;42.704;23.384;2024-02-23T02:48:03;95100.78;;;6.20;nan
4617;BME280;2321;42.704;23.384;2024-02-23T02:50:31;95103.56;;;6.27;nan
4617;BME280;2321;42.704;23.384;2024-02-23T02:52:58;95106.38;;;6.25;nan
4617;BME280;2321;42.704;23.384;2024-02-23T02:55:25;95093.97;;;6.26;nan
4617;BME280;2321;42.704;23.384;2024-02-23T02:57:52;95096.25;;;6.29;nan
4617;BME280;2321;42.704;23.384;2024-02-23T03:00:19;95105.34;;;6.35;nan
4617;BME280;2321;42.704;23.384;2024-02-23T03:02:47;95103.16;;;6.38;nan
4617;BME280;2321;42.704;23.384;2024-02-23T03:05:15;95104.47;;;6.42;nan
4617;BME280;2321;42.704;23.384;2024-02-23T03:07:42;95110.41;;;6.45;nan
4617;BME280;2321;42.704;23.384;2024-02-23T03:10:09;95110.41;;;6.45;nan
4617;BME280;2321;42.704;23.384;2024-02-23T03:12:36;95105.94;;;6.45;nan
4617;BME280;2321;42.704;23.384;2024-02-23T03:15:04;95101.28;;;6.47;nan
4617;BME280;2321;42.704;23.384;2024-02-23T03:17:31;95106.09;;;6.52;nan
4617;BME280;2321;42.704;23.384;2024-02-23T03:20:00;95114.53;;;6.47;nan
4617;BME280;2321;42.704;23.384;2024-02-23T03:22:27;95122.16;;;6.42;nan
4617;BME280;2321;42.704;23.384;2024-02-23T03:24:54;95105.34;;;6.35;nan
4617;BME280;2321;42.704;23.384;2024-02-23T03:27:28;95101.22;;;6.32;nan
4617;BME280;2321;42.704;23.384;2024-02-23T03:29:55;95110.66;;;6.35;nan
4617;BME280;2321;42.704;23.384;2024-02-23T03:32:22;95108.16;;;6.33;nan
4617;BME280;2321;42.704;23.384;2024-02-23T03:34:49;95106.84;;;6.29;nan
4617;BME280;2321;42.704;23.384;2024-02-23T03:37:18;95111.28;;;6.37;nan
4617;BME280;2321;42.704;23.384;2024-02-23T03:39:45;95116.03;;;6.41;nan
4617;BME280;2321;42.704;23.384;2024-02-23T03:42:14;95112.56;;;6.49;nan
4617;BME280;2321;42.704;23.384;2024-02-23T03:44:41;95118.81;;;6.48;nan
4617;BME280;2321;42.704;23.384;2024-02-23T03:47:08;95115.19;;;6.49;nan
4617;BME280;2321;42.704;23.384;2024-02-23T03:49:35;95111.38;;;6.52;nan
4617;BME280;2321;42.704;23.384;2024-02-23T03:52:03;95103.78;;;6.49;nan
4617;BME280;2321;42.704;23.384;2024-02-23T03:54:32;95109.41;;;6.46;nan
4617;BME280;2321;42.704;23.384;2024-02-23T03:56:59;95110.59;;;6.43;nan
4617;BME280;2321;42.704;23.384;2024-02-23T03:59:26;95113.25;;;6.43;nan
4617;BME280;2321;42.704;23.384;2024-02-23T04:01:53;95109.72;;;6.51;nan
4617;BME280;2321;42.704;23.384;2024-02-23T04:04:20;95116.47;;;6.53;nan
4617;BME280;2321;42.704;23.384;2024-02-23T04:06:47;95089.13;;;6.38;nan
4617;BME280;2321;42.704;23.384;2024-02-23T04:09:14;95115.13;;;6.58;nan
4617;BME280;2321;42.704;23.384;2024-02-23T04:11:43;95118.44;;;6.60;nan
4617;BME280;2321;42.704;23.384;2024-02-23T04:14:10;95116.31;;;6.55;nan
4617;BME280;2321;42.704;23.384;2024-02-23T04:16:37;95115.50;;;6.54;nan
4617;BME280;2321;42.704;23.384;2024-02-23T04:19:04;95131.00;;;6.58;nan
4617;BME280;2321;42.704;23.384;2024-02-23T04:21:31;95125.38;;;6.61;nan
4617;BME280;2321;42.704;23.384;2024-02-23T04:23:58;95115.44;;;6.63;nan
4617;BME280;2321;42.704;23.384;2024-02-23T04:26:25;95116.75;;;6.67;nan
4617;BME280;2321;42.704;23.384;2024-02-23T04:28:54;95119.03;;;6.70;nan
4617;BME280;2321;42.704;23.384;2024-02-23T04:31:21;95119.19;;;6.77;nan
4617;BME280;2321;42.704;23.384;2024-02-23T04:33:48;95113.06;;;6.77;nan
4617;BME280;2321;42.704;23.384;2024-02-23T04:36:19;95133.38;;;6.76;nan
4617;BME280;2321;42.704;23.384;2024-02-23T04:38:46;95121.63;;;6.79;nan
4617;BME280;2321;42.704;23.384;2024-02-23T04:41:13;95128.38;;;6.81;nan
4617;BME280;2321;42.704;23.384;2024-02-23T04:43:40;95124.75;;;6.82;nan
4617;BME280;2321;42.704;23.384;2024-02-23T04:46:08;95125.94;;;6.80;nan
4617;BME280;2321;42.704;23.384;2024-02-23T04:48:35;95126.91;;;6.79;nan
4617;BME280;2321;42.704;23.384;2024-02-23T04:51:03;95130.88;;;6.83;nan
4617;BME280;2321;42.704;23.384;2024-02-23T04:53:32;95127.75;;;6.79;nan
4617;BME280;2321;42.704;23.384;2024-02-23T04:56:03;95142.31;;;6.75;nan
4617;BME280;2321;42.704;23.384;2024-02-23T04:58:30;95134.22;;;6.77;nan
4617;BME280;2321;42.704;23.384;2024-02-23T05:00:57;95136.88;;;6.77;nan
4617;BME280;2321;42.704;23.384;2024-02-23T05:03:25;95126.63;;;6.73;nan
4617;BME280;2321;42.704;23.384;2024-02-23T05:05:53;95136.09;;;6.68;nan
4617;BME280;2321;42.704;23.384;2024-02-23T05:08:20;95138.91;;;6.66;nan
4617;BME280;2321;42.704;23.384;2024-02-23T05:10:49;95144.72;;;6.61;nan
4617;BME280;2321;42.704;23.384;2024-02-23T05:13:16;95148.06;;;6.55;nan
4617;BME280;2321;42.704;23.384;2024-02-23T05:15:44;95145.91;;;6.50;nan
4617;BME280;2321;42.704;23.384;2024-02-23T05:18:11;95153.06;;;6.41;nan
4617;BME280;2321;42.704;23.384;2024-02-23T05:20:39;95158.06;;;6.36;nan
4617;BME280;2321;42.704;23.384;2024-02-23T05:23:06;95164.03;;;6.30;nan
4617;BME280;2321;42.704;23.384;2024-02-23T05:25:34;95169.00;;;6.25;nan
4617;BME280;2321;42.704;23.384;2024-02-23T05:28:01;95169.34;;;6.21;nan
4617;BME280;2321;42.704;23.384;2024-02-23T05:30:28;95168.22;;;6.16;nan
4617;BME280;2321;42.704;23.384;2024-02-23T05:32:57;95167.06;;;6.10;nan
4617;BME280;2321;42.704;23.384;2024-02-23T05:35:25;95160.25;;;6.07;nan
4617;BME280;2321;42.704;23.384;2024-02-23T05:37:53;95166.91;;;6.03;nan
4617;BME280;2321;42.704;23.384;2024-02-23T05:40:21;95154.69;;;5.94;nan
4617;BME280;2321;42.704;23.384;2024-02-23T05:42:48;95154.69;;;5.94;nan
4617;BME280;2321;42.704;23.384;2024-02-23T05:45:15;95160.97;;;5.93;nan
4617;BME280;2321;42.704;23.384;2024-02-23T05:47:42;95161.81;;;5.85;nan
4617;BME280;2321;42.704;23.384;2024-02-23T05:50:09;95165.63;;;5.82;nan
4617;BME280;2321;42.704;23.384;2024-02-23T05:52:37;95171.06;;;5.81;nan
4617;BME280;2321;42.704;23.384;2024-02-23T05:55:07;95171.72;;;5.83;nan
4617;BME280;2321;42.704;23.384;2024-02-23T05:57:34;95177.50;;;5.78;nan
4617;BME280;2321;42.704;23.384;2024-02-23T06:00:01;95189.88;;;5.77;nan
4617;BME280;2321;42.704;23.384;2024-02-23T06:02:28;95200.78;;;5.74;nan
4617;BME280;2321;42.704;23.384;2024-02-23T06:04:55;95183.63;;;5.78;nan
4617;BME280;2321;42.704;23.384;2024-02-23T06:07:23;95187.75;;;5.81;nan
4617;BME280;2321;42.704;23.384;2024-02-23T06:09:55;95183.44;;;5.80;nan
4617;BME280;2321;42.704;23.384;2024-02-23T06:12:24;95192.03;;;5.91;nan
4617;BME280;2321;42.704;23.384;2024-02-23T06:14:52;95196.63;;;5.97;nan
4617;BME280;2321;42.704;23.384;2024-02-23T06:17:21;95196.63;;;6.05;nan
4617;BME280;2321;42.704;23.384;2024-02-23T06:19:49;95173.16;;;6.02;nan
4617;BME280;2321;42.704;23.384;2024-02-23T06:22:18;95186.03;;;6.22;nan
4617;BME280;2321;42.704;23.384;2024-02-23T06:24:47;95191.44;;;6.29;nan
4617;BME280;2321;42.704;23.384;2024-02-23T06:27:14;95206.63;;;6.35;nan
4617;BME280;2321;42.704;23.384;2024-02-23T06:29:45;95203.66;;;6.47;nan
4617;BME280;2321;42.704;23.384;2024-02-23T06:32:14;95201.66;;;6.49;nan
4617;BME280;2321;42.704;23.384;2024-02-23T06:34:41;95207.88;;;6.64;nan
4617;BME280;2321;42.704;23.384;2024-02-23T06:37:08;95208.66;;;6.73;nan
4617;BME280;2321;42.704;23.384;2024-02-23T06:39:35;95212.28;;;6.81;nan
4617;BME280;2321;42.704;23.384;2024-02-23T06:42:03;95196.34;;;6.89;nan
4617;BME280;2321;42.704;23.384;2024-02-23T06:44:30;95206.41;;;6.94;nan
4617;BME280;2321;42.704;23.384;2024-02-23T06:46:58;95200.59;;;6.99;nan
4617;BME280;2321;42.704;23.384;2024-02-23T06:49:25;95201.72;;;7.04;nan
4617;BME280;2321;42.704;23.384;2024-02-23T06:51:53;95200.34;;;7.08;nan
4617;BME280;2321;42.704;23.384;2024-02-23T06:54:20;95214.53;;;7.16;nan
4617;BME280;2321;42.704;23.384;2024-02-23T06:56:47;95215.16;;;7.26;nan
4617;BME280;2321;42.704;23.384;2024-02-23T06:59:14;95211.81;;;7.33;nan
4617;BME280;2321;42.704;23.384;2024-02-23T07:01:48;95214.56;;;7.39;nan
4617;BME280;2321;42.704;23.384;2024-02-23T07:04:18;95211.38;;;7.44;nan
4617;BME280;2321;42.704;23.384;2024-02-23T07:06:45;95225.19;;;7.55;nan
4617;BME280;2321;42.704;23.384;2024-02-23T07:09:12;95211.56;;;7.66;nan
4617;BME280;2321;42.704;23.384;2024-02-23T07:11:40;95215.66;;;7.69;nan
4617;BME280;2321;42.704;23.384;2024-02-23T07:14:09;95211.94;;;7.78;nan
4617;BME280;2321;42.704;23.384;2024-02-23T07:16:44;95220.75;;;7.94;nan
4617;BME280;2321;42.704;23.384;2024-02-23T07:19:14;95217.84;;;8.04;nan
4617;BME280;2321;42.704;23.384;2024-02-23T07:21:44;95211.09;;;8.16;nan
4617;BME280;2321;42.704;23.384;2024-02-23T07:24:24;95204.53;;;8.27;nan
4617;BME280;2321;42.704;23.384;2024-02-23T07:26:51;95206.50;;;8.41;nan
4617;BME280;2321;42.704;23.384;2024-02-23T07:29:18;95204.50;;;8.58;nan
4617;BME280;2321;42.704;23.384;2024-02-23T07:31:48;95197.41;;;8.74;nan
4617;BME280;2321;42.704;23.384;2024-02-23T07:34:17;95190.41;;;8.88;nan
4617;BME280;2321;42.704;23.384;2024-02-23T07:36:45;95186.25;;;9.00;nan
4617;BME280;2321;42.704;23.384;2024-02-23T07:39:15;95175.34;;;9.10;nan
4617;BME280;2321;42.704;23.384;2024-02-23T07:41:43;95176.97;;;9.33;nan
4617;BME280;2321;42.704;23.384;2024-02-23T07:44:12;95185.50;;;9.51;nan
4617;BME280;2321;42.704;23.384;2024-02-23T07:46:44;95192.41;;;9.67;nan
4617;BME280;2321;42.704;23.384;2024-02-23T07:49:20;95202.56;;;9.85;nan
4617;BME280;2321;42.704;23.384;2024-02-23T07:51:50;95197.16;;;10.00;nan
4617;BME280;2321;42.704;23.384;2024-02-23T07:54:20;95198.88;;;10.15;nan
4617;BME280;2321;42.704;23.384;2024-02-23T07:56:47;95196.94;;;10.24;nan
4617;BME280;2321;42.704;23.384;2024-02-23T07:59:14;95196.94;;;10.31;nan
4617;BME280;2321;42.704;23.384;2024-02-23T08:01:41;95189.00;;;10.38;nan
4617;BME280;2321;42.704;23.384;2024-02-23T08:04:08;95190.31;;;10.49;nan
4617;BME280;2321;42.704;23.384;2024-02-23T08:06:35;95197.34;;;10.56;nan
4617;BME280;2321;42.704;23.384;2024-02-23T08:09:04;95203.53;;;10.64;nan
4617;BME280;2321;42.704;23.384;2024-02-23T08:11:33;95200.88;;;10.71;nan
4617;BME280;2321;42.704;23.384;2024-02-23T08:14:00;95194.59;;;10.85;nan
4617;BME280;2321;42.704;23.384;2024-02-23T08:16:28;95199.94;;;10.92;nan
4617;BME280;2321;42.704;23.384;2024-02-23T08:18:55;95200.19;;;10.97;nan
4617;BME280;2321;42.704;23.384;2024-02-23T08:21:22;95200.81;;;11.06;nan
4617;BME280;2321;42.704;23.384;2024-02-23T08:23:50;95193.66;;;11.14;nan
4617;BME280;2321;42.704;23.384;2024-02-23T08:26:18;95203.94;;;11.24;nan
4617;BME280;2321;42.704;23.384;2024-02-23T08:28:45;95196.97;;;11.29;nan
4617;BME280;2321;42.704;23.384;2024-02-23T08:31:12;95192.09;;;11.40;nan
4617;BME280;2321;42.704;23.384;2024-02-23T08:33:40;95191.06;;;11.48;nan
4617;BME280;2321;42.704;23.384;2024-02-23T08:36:07;95190.03;;;11.62;nan
4617;BME280;2321;42.704;23.384;2024-02-23T08:38:34;95182.66;;;11.78;nan
4617;BME280;2321;42.704;23.384;2024-02-23T08:41:02;95179.59;;;11.88;nan
4617;BME280;2321;42.704;23.384;2024-02-23T08:43:30;95183.69;;;11.97;nan
4617;BME280;2321;42.704;23.384;2024-02-23T08:45:57;95188.41;;;12.09;nan
4617;BME280;2321;42.704;23.384;2024-02-23T08:48:25;95175.28;;;12.14;nan
4617;BME280;2321;42.704;23.384;2024-02-23T08:50:52;95183.50;;;12.26;nan
4617;BME280;2321;42.704;23.384;2024-02-23T08:53:19;95183.47;;;12.33;nan
4617;BME280;2321;42.704;23.384;2024-02-23T08:55:46;95186.94;;;12.40;nan
4617;BME280;2321;42.704;23.384;2024-02-23T08:58:13;95185.09;;;12.48;nan
4617;BME280;2321;42.704;23.384;2024-02-23T09:00:41;95194.72;;;12.49;nan
4617;BME280;2321;42.704;23.384;2024-02-23T09:03:08;95196.38;;;12.43;nan
4617;BME280;2321;42.704;23.384;2024-02-23T09:05:36;95192.72;;;12.37;nan
4617;BME280;2321;42.704;23.384;2024-02-23T09:08:03;95188.19;;;12.38;nan
4617;BME280;2321;42.704;23.384;2024-02-23T09:10:30;95189.03;;;12.38;nan
4617;BME280;2321;42.704;23.384;2024-02-23T09:12:57;95188.19;;;12.45;nan
4617;BME280;2321;42.704;23.384;2024-02-23T09:15:24;95178.50;;;12.50;nan
4617;BME280;2321;42.704;23.384;2024-02-23T09:17:53;95177.63;;;12.63;nan
4617;BME280;2321;42.704;23.384;2024-02-23T09:20:20;95188.88;;;12.79;nan
4617;BME280;2321;42.704;23.384;2024-02-23T09:22:48;95190.66;;;12.99;nan
4617;BME280;2321;42.704;23.384;2024-02-23T09:25:15;95180.53;;;13.15;nan
4617;BME280;2321;42.704;23.384;2024-02-23T09:27:42;95182.25;;;13.35;nan
4617;BME280;2321;42.704;23.384;2024-02-23T09:30:11;95185.88;;;13.47;nan
4617;BME280;2321;42.704;23.384;2024-02-23T09:32:38;95178.00;;;13.59;nan
4617;BME280;2321;42.704;23.384;2024-02-23T09:35:07;95181.63;;;13.72;nan
4617;BME280;2321;42.704;23.384;2024-02-23T09:37:34;95175.94;;;13.87;nan
4617;BME280;2321;42.704;23.384;2024-02-23T09:40:02;95174.44;;;13.98;nan
4617;BME280;2321;42.704;23.384;2024-02-23T09:42:29;95174.09;;;14.13;nan
4617;BME280;2321;42.704;23.384;2024-02-23T09:44:59;95178.72;;;14.25;nan
4617;BME280;2321;42.704;23.384;2024-02-23T09:47:27;95174.47;;;14.36;nan
4617;BME280;2321;42.704;23.384;2024-02-23T09:49:55;95176.41;;;14.47;nan
4617;BME280;2321;42.704;23.384;2024-02-23T09:52:24;95174.63;;;14.60;nan
4617;BME280;2321;42.704;23.384;2024-02-23T09:54:54;95171.66;;;14.68;nan
4617;BME280;2321;42.704;23.384;2024-02-23T09:57:21;95171.88;;;14.67;nan
4617;BME280;2321;42.704;23.384;2024-02-23T09:59:49;95161.69;;;14.76;nan
4617;BME280;2321;42.704;23.384;2024-02-23T10:02:17;95169.34;;;14.91;nan
4617;BME280;2321;42.704;23.384;2024-02-23T10:04:44;95156.00;;;15.03;nan
4617;BME280;2321;42.704;23.384;2024-02-23T10:07:14;95152.78;;;15.13;nan
4617;BME280;2321;42.704;23.384;2024-02-23T10:09:43;95152.00;;;15.24;nan
4617;BME280;2321;42.704;23.384;2024-02-23T10:12:10;95157.56;;;15.42;nan
4617;BME280;2321;42.704;23.384;2024-02-23T10:14:37;95157.69;;;15.47;nan
4617;BME280;2321;42.704;23.384;2024-02-23T10:17:06;95155.38;;;15.51;nan
4617;BME280;2321;42.704;23.384;2024-02-23T10:19:34;95149.53;;;15.54;nan
4617;BME280;2321;42.704;23.384;2024-02-23T10:22:01;95147.56;;;15.61;nan
4617;BME280;2321;42.704;23.384;2024-02-23T10:24:28;95155.41;;;15.75;nan
4617;BME280;2321;42.704;23.384;2024-02-23T10:26:56;95150.28;;;15.85;nan
4617;BME280;2321;42.704;23.384;2024-02-23T10:29:25;95144.56;;;15.94;nan
4617;BME280;2321;42.704;23.384;2024-02-23T10:31:52;95141.91;;;15.94;nan
4617;BME280;2321;42.704;23.384;2024-02-23T10:34:24;95135.81;;;15.86;nan
4617;BME280;2321;42.704;23.384;2024-02-23T10:36:52;95140.03;;;15.82;nan
4617;BME280;2321;42.704;23.384;2024-02-23T10:39:23;95134.06;;;15.80;nan
4617;BME280;2321;42.704;23.384;2024-02-23T10:41:57;95125.78;;;15.82;nan
4617;BME280;2321;42.704;23.384;2024-02-23T10:44:24;95125.78;;;15.94;nan
4617;BME280;2321;42.704;23.384;2024-02-23T10:46:54;95109.06;;;15.92;nan
4617;BME280;2321;42.704;23.384;2024-02-23T10:49:24;95118.56;;;15.94;nan
4617;BME280;2321;42.704;23.384;2024-02-23T10:51:53;95116.34;;;15.91;nan
4617;BME280;2321;42.704;23.384;2024-02-23T10:54:22;95104.41;;;15.99;nan
4617;BME280;2321;42.704;23.384;2024-02-23T10:56:50;95098.72;;;16.07;nan
4617;BME280;2321;42.704;23.384;2024-02-23T10:59:19;95098.09;;;16.05;nan
4617;BME280;2321;42.704;23.384;2024-02-23T11:01:49;95091.09;;;16.04;nan
4617;BME280;2321;42.704;23.384;2024-02-23T11:04:17;95085.16;;;16.14;nan
4617;BME280;2321;42.704;23.384;2024-02-23T11:06:49;95084.81;;;16.22;nan
4617;BME280;2321;42.704;23.384;2024-02-23T11:09:20;95077.66;;;16.40;nan
4617;BME280;2321;42.704;23.384;2024-02-23T11:11:54;95080.41;;;16.58;nan
4617;BME280;2321;42.704;23.384;2024-02-23T11:14:32;95075.09;;;16.75;nan
4617;BME280;2321;42.704;23.384;2024-02-23T11:16:59;95076.69;;;16.88;nan
4617;BME280;2321;42.704;23.384;2024-02-23T11:19:33;95069.94;;;17.03;nan
4617;BME280;2321;42.704;23.384;2024-02-23T11:22:01;95069.56;;;17.11;nan
4617;BME280;2321;42.704;23.384;2024-02-23T11:24:29;95066.03;;;17.23;nan
4617;BME280;2321;42.704;23.384;2024-02-23T11:26:57;95049.06;;;17.22;nan
4617;BME280;2321;42.704;23.384;2024-02-23T11:29:29;95062.44;;;17.34;nan
4617;BME280;2321;42.704;23.384;2024-02-23T11:32:00;95053.81;;;17.32;nan
4617;BME280;2321;42.704;23.384;2024-02-23T11:34:29;95047.28;;;17.28;nan
4617;BME280;2321;42.704;23.384;2024-02-23T11:36:57;95048.44;;;17.32;nan
4617;BME280;2321;42.704;23.384;2024-02-23T11:39:26;95054.28;;;17.46;nan
4617;BME280;2321;42.704;23.384;2024-02-23T11:41:53;95051.59;;;17.63;nan
4617;BME280;2321;42.704;23.384;2024-02-23T11:44:22;95041.88;;;17.80;nan
4617;BME280;2321;42.704;23.384;2024-02-23T11:46:49;95045.53;;;17.91;nan
4617;BME280;2321;42.704;23.384;2024-02-23T11:49:17;95048.63;;;18.00;nan
4617;BME280;2321;42.704;23.384;2024-02-23T11:51:44;95036.88;;;17.89;nan
4617;BME280;2321;42.704;23.384;2024-02-23T11:54:12;95047.53;;;18.01;nan
4617;BME280;2321;42.704;23.384;2024-02-23T11:56:40;95039.28;;;18.07;nan
4617;BME280;2321;42.704;23.384;2024-02-23T11:59:08;95042.03;;;18.13;nan
4617;BME280;2321;42.704;23.384;2024-02-23T12:01:35;95029.66;;;18.12;nan
4617;BME280;2321;42.704;23.384;2024-02-23T12:04:02;95031.25;;;18.13;nan
4617;BME280;2321;42.704;23.384;2024-02-23T12:06:31;95035.75;;;18.07;nan
4617;BME280;2321;42.704;23.384;2024-02-23T12:08:58;95036.34;;;18.09;nan
4617;BME280;2321;42.704;23.384;2024-02-23T12:11:26;95033.44;;;18.16;nan
4617;BME280;2321;42.704;23.384;2024-02-23T12:13:55;95021.31;;;18.13;nan
4617;BME280;2321;42.704;23.384;2024-02-23T12:16:22;95019.75;;;18.17;nan
4617;BME280;2321;42.704;23.384;2024-02-23T12:18:53;95028.06;;;18.16;nan
4617;BME280;2321;42.704;23.384;2024-02-23T12:21:21;95020.56;;;18.18;nan
4617;BME280;2321;42.704;23.384;2024-02-23T12:23:50;95018.34;;;18.32;nan
4617;BME280;2321;42.704;23.384;2024-02-23T12:26:18;95028.75;;;18.46;nan
4617;BME280;2321;42.704;23.384;2024-02-23T12:28:45;95023.44;;;18.56;nan
4617;BME280;2321;42.704;23.384;2024-02-23T12:31:12;95020.38;;;18.70;nan
4617;BME280;2321;42.704;23.384;2024-02-23T12:33:40;95011.03;;;18.83;nan
4617;BME280;2321;42.704;23.384;2024-02-23T12:36:08;95006.88;;;18.98;nan
4617;BME280;2321;42.704;23.384;2024-02-23T12:38:35;95011.31;;;19.09;nan
4617;BME280;2321;42.704;23.384;2024-02-23T12:41:04;95008.94;;;19.18;nan
4617;BME280;2321;42.704;23.384;2024-02-23T12:43:31;95010.28;;;19.15;nan
4617;BME280;2321;42.704;23.384;2024-02-23T12:45:58;95000.47;;;19.04;nan
4617;BME280;2321;42.704;23.384;2024-02-23T12:48:27;94993.06;;;18.89;nan
4617;BME280;2321;42.704;23.384;2024-02-23T12:50:54;94996.03;;;18.92;nan
4617;BME280;2321;42.704;23.384;2024-02-23T12:53:32;94989.88;;;18.97;nan
4617;BME280;2321;42.704;23.384;2024-02-23T12:56:01;94987.16;;;18.92;nan
4617;BME280;2321;42.704;23.384;2024-02-23T12:58:29;94999.72;;;18.81;nan
4617;BME280;2321;42.704;23.384;2024-02-23T13:00:57;94982.66;;;18.75;nan
4617;BME280;2321;42.704;23.384;2024-02-23T13:03:24;94986.13;;;18.70;nan
4617;BME280;2321;42.704;23.384;2024-02-23T13:05:52;94983.13;;;18.67;nan
4617;BME280;2321;42.704;23.384;2024-02-23T13:08:20;94992.81;;;18.68;nan
4617;BME280;2321;42.704;23.384;2024-02-23T13:10:47;94990.09;;;18.62;nan
4617;BME280;2321;42.704;23.384;2024-02-23T13:13:14;94985.41;;;18.53;nan
4617;BME280;2321;42.704;23.384;2024-02-23T13:15:44;94980.00;;;18.53;nan
4617;BME280;2321;42.704;23.384;2024-02-23T13:18:11;94974.09;;;18.56;nan
4617;BME280;2321;42.704;23.384;2024-02-23T13:20:37;94976.66;;;18.68;nan
4617;BME280;2321;42.704;23.384;2024-02-23T13:23:05;94975.59;;;18.69;nan
4617;BME280;2321;42.704;23.384;2024-02-23T13:25:33;94982.13;;;18.73;nan
4617;BME280;2321;42.704;23.384;2024-02-23T13:28:01;94981.03;;;18.74;nan
4617;BME280;2321;42.704;23.384;2024-02-23T13:30:29;94975.13;;;18.77;nan
4617;BME280;2321;42.704;23.384;2024-02-23T13:32:58;94970.34;;;18.84;nan
4617;BME280;2321;42.704;23.384;2024-02-23T13:35:25;94975.47;;;18.86;nan
4617;BME280;2321;42.704;23.384;2024-02-23T13:37:53;94972.50;;;18.82;nan
4617;BME280;2321;42.704;23.384;2024-02-23T13:40:20;94971.63;;;18.77;nan
4617;BME280;2321;42.704;23.384;2024-02-23T13:42:47;94970.97;;;18.64;nan